createdAt,value
2022-10-31T00:01:22.471Z,11.99
2022-10-31T00:03:50.111Z,11.66
2022-10-31T00:06:19.168Z,11.53
2022-10-31T00:08:47.030Z,11.60
2022-10-31T00:11:16.394Z,11.54
2022-10-31T00:13:44.304Z,11.64
2022-10-31T00:16:16.200Z,11.69
2022-10-31T00:18:44.296Z,11.68
2022-10-31T00:21:12.431Z,11.60
2022-10-31T00:23:40.309Z,11.53
2022-10-31T00:26:08.916Z,11.55
2022-10-31T00:28:38.492Z,11.66
2022-10-31T00:31:07.985Z,11.85
2022-10-31T00:33:39.309Z,11.96
2022-10-31T00:36:08.196Z,11.83
2022-10-31T00:38:35.940Z,11.81
2022-10-31T00:41:04.069Z,11.75
2022-10-31T00:43:32.832Z,11.73
2022-10-31T00:46:02.359Z,11.73
2022-10-31T00:48:30.492Z,11.71
2022-10-31T00:50:58.795Z,10.93
2022-10-31T00:53:26.615Z,10.62
2022-10-31T00:55:54.350Z,10.78
2022-10-31T00:58:23.500Z,10.89
2022-10-31T01:00:55.996Z,11.06
2022-10-31T01:03:27.135Z,11.34
2022-10-31T01:05:59.353Z,11.53
2022-10-31T01:08:27.495Z,11.59
2022-10-31T01:11:02.409Z,11.61
2022-10-31T01:13:30.182Z,11.61
2022-10-31T01:15:59.351Z,11.64
2022-10-31T01:18:28.438Z,11.68
2022-10-31T01:21:00.923Z,11.66
2022-10-31T01:23:28.958Z,11.67
2022-10-31T01:26:04.269Z,11.82
2022-10-31T01:28:33.691Z,12.07
2022-10-31T01:31:06.939Z,11.96
2022-10-31T01:33:37.591Z,11.72
2022-10-31T01:36:13.010Z,11.63
2022-10-31T01:38:40.738Z,11.60
2022-10-31T01:41:08.451Z,11.62
2022-10-31T01:43:46.553Z,11.47
2022-10-31T01:46:14.673Z,11.33
2022-10-31T01:48:44.173Z,11.25
2022-10-31T01:51:13.611Z,11.23
2022-10-31T01:53:41.813Z,11.18
2022-10-31T01:56:09.821Z,11.24
2022-10-31T01:58:38.905Z,11.22
2022-10-31T02:01:08.073Z,11.29
2022-10-31T02:03:37.446Z,11.36
2022-10-31T02:06:08.861Z,11.56
2022-10-31T02:08:37.028Z,11.61
2022-10-31T02:11:05.066Z,11.60
2022-10-31T02:13:32.955Z,11.56
2022-10-31T02:16:01.019Z,11.57
2022-10-31T02:18:32.354Z,11.63
2022-10-31T02:21:05.208Z,11.60
2022-10-31T02:23:59.181Z,11.69
2022-10-31T02:26:48.691Z,11.73
2022-10-31T02:29:39.066Z,11.67
2022-10-31T02:32:12.175Z,11.69
2022-10-31T02:34:45.739Z,11.84
2022-10-31T02:37:15.301Z,11.98
2022-10-31T02:39:47.692Z,12.04
2022-10-31T02:42:23.994Z,12.14
2022-10-31T02:44:53.867Z,12.11
2022-10-31T02:47:26.414Z,11.93
2022-10-31T02:49:58.005Z,11.27
2022-10-31T02:52:26.818Z,10.89
2022-10-31T02:54:55.208Z,11.03
2022-10-31T02:57:25.519Z,11.33
2022-10-31T02:59:55.792Z,11.57
2022-10-31T03:02:30.967Z,11.73
2022-10-31T03:05:09.968Z,11.89
2022-10-31T03:07:42.205Z,11.96
2022-10-31T03:10:17.217Z,11.66
2022-10-31T03:12:51.103Z,11.37
2022-10-31T03:15:21.901Z,11.09
2022-10-31T03:17:55.838Z,10.58
2022-10-31T03:20:29.009Z,10.24
2022-10-31T03:23:02.327Z,10.30
2022-10-31T03:25:31.085Z,10.58
2022-10-31T03:28:01.232Z,10.91
2022-10-31T03:30:31.310Z,11.24
2022-10-31T03:33:04.343Z,11.20
2022-10-31T03:35:34.236Z,11.25
2022-10-31T03:38:07.914Z,11.32
2022-10-31T03:40:37.931Z,11.50
2022-10-31T03:43:09.928Z,11.55
2022-10-31T03:45:41.829Z,11.60
2022-10-31T03:48:11.078Z,11.57
2022-10-31T03:50:42.385Z,11.56
2022-10-31T03:53:12.553Z,11.55
2022-10-31T03:55:44.559Z,11.35
2022-10-31T03:58:14.035Z,11.32
2022-10-31T04:00:44.474Z,11.47
2022-10-31T04:03:14.900Z,11.63
2022-10-31T04:05:47.834Z,11.66
2022-10-31T04:08:19.116Z,11.69
2022-10-31T04:10:49.034Z,11.75
2022-10-31T04:16:00.942Z,11.76
2022-10-31T04:18:31.277Z,11.71
2022-10-31T04:21:02.871Z,11.71
2022-10-31T04:23:30.922Z,11.71
2022-10-31T04:26:00.292Z,11.67
2022-10-31T04:28:28.130Z,11.63
2022-10-31T04:30:55.867Z,11.69
2022-10-31T04:33:23.996Z,11.85
2022-10-31T04:35:53.210Z,12.01
2022-10-31T04:38:20.917Z,12.06
2022-10-31T04:40:50.442Z,11.53
2022-10-31T04:43:38.466Z,10.77
2022-10-31T04:46:06.527Z,10.51
2022-10-31T04:48:34.830Z,10.62
2022-10-31T04:51:04.886Z,10.10
2022-10-31T04:53:33.504Z,9.69
2022-10-31T04:56:27.687Z,9.36
2022-10-31T04:59:05.839Z,9.49
2022-10-31T05:01:48.334Z,9.57
2022-10-31T05:04:19.094Z,9.38
2022-10-31T05:06:49.116Z,9.23
2022-10-31T05:09:16.929Z,9.28
2022-10-31T05:11:45.750Z,9.34
2022-10-31T05:14:46.122Z,9.37
2022-10-31T05:17:48.431Z,9.36
2022-10-31T05:20:51.332Z,9.61
2022-10-31T05:23:30.272Z,9.92
2022-10-31T05:25:57.978Z,10.08
2022-10-31T05:28:26.109Z,10.55
2022-10-31T05:30:54.922Z,10.94
2022-10-31T05:33:23.033Z,11.16
2022-10-31T05:36:11.094Z,11.37
2022-10-31T05:38:45.818Z,11.53
2022-10-31T05:41:22.442Z,11.59
2022-10-31T05:43:50.498Z,11.75
2022-10-31T05:46:22.622Z,11.79
2022-10-31T05:49:09.010Z,11.44
2022-10-31T05:52:06.144Z,11.06
2022-10-31T05:54:42.739Z,11.15
2022-10-31T05:57:11.227Z,11.32
2022-10-31T05:59:39.069Z,11.27
2022-10-31T06:02:07.021Z,11.40
2022-10-31T06:04:53.233Z,11.55
2022-10-31T06:07:21.512Z,11.48
2022-10-31T06:09:50.843Z,11.38
2022-10-31T06:12:21.645Z,11.26
2022-10-31T06:15:08.831Z,11.28
2022-10-31T06:17:38.619Z,11.40
2022-10-31T06:20:25.554Z,11.45
2022-10-31T06:23:00.153Z,11.54
2022-10-31T06:25:29.831Z,11.53
2022-10-31T06:27:58.344Z,11.61
2022-10-31T06:30:33.481Z,11.68
2022-10-31T06:33:06.509Z,11.61
2022-10-31T06:35:39.053Z,11.58
2022-10-31T06:38:07.456Z,11.55
2022-10-31T06:40:41.873Z,11.51
2022-10-31T06:43:30.757Z,11.26
2022-10-31T06:46:18.682Z,11.78
2022-10-31T06:49:05.411Z,12.09
2022-10-31T06:51:43.803Z,12.08
2022-10-31T06:54:12.185Z,12.42
2022-10-31T06:56:41.681Z,12.31
2022-10-31T06:59:09.908Z,12.30
2022-10-31T07:02:11.036Z,11.85
2022-10-31T07:04:40.733Z,12.25
2022-10-31T07:07:10.079Z,12.34
2022-10-31T07:09:39.671Z,12.35
2022-10-31T07:12:10.560Z,12.35
2022-10-31T07:14:41.929Z,12.34
2022-10-31T07:17:09.893Z,12.45
2022-10-31T07:19:45.777Z,12.33
2022-10-31T07:22:17.655Z,12.63
2022-10-31T07:24:46.729Z,12.72
2022-10-31T07:27:43.018Z,12.72
2022-10-31T07:30:14.908Z,12.99
2022-10-31T07:32:44.193Z,13.32
2022-10-31T07:35:15.715Z,13.54
2022-10-31T07:38:00.998Z,13.52
2022-10-31T07:40:29.343Z,13.53
2022-10-31T07:43:00.159Z,13.84
2022-10-31T07:45:51.116Z,13.99
2022-10-31T07:48:58.159Z,14.08
2022-10-31T07:51:55.408Z,14.20
2022-10-31T07:54:37.043Z,14.23
2022-10-31T07:57:07.468Z,14.22
2022-10-31T07:59:37.263Z,14.14
2022-10-31T08:02:07.407Z,14.16
2022-10-31T08:04:44.321Z,14.02
2022-10-31T08:07:31.053Z,13.92
2022-10-31T08:10:05.944Z,13.93
2022-10-31T08:12:35.525Z,14.20
2022-10-31T08:15:07.716Z,14.23
2022-10-31T08:17:38.306Z,14.16
2022-10-31T08:20:06.776Z,13.90
2022-10-31T08:22:43.683Z,13.85
2022-10-31T08:25:12.392Z,14.15
2022-10-31T08:27:40.604Z,14.07
2022-10-31T08:30:18.222Z,13.86
2022-10-31T08:33:02.445Z,13.95
2022-10-31T08:35:49.483Z,14.20
2022-10-31T08:38:40.424Z,14.51
2022-10-31T08:41:10.812Z,14.71
2022-10-31T08:43:38.784Z,15.08
2022-10-31T08:46:08.561Z,14.88
2022-10-31T08:48:37.562Z,14.81
2022-10-31T08:51:07.234Z,14.74
2022-10-31T08:53:35.027Z,14.88
2022-10-31T08:56:25.519Z,15.19
2022-10-31T08:58:54.722Z,14.70
2022-10-31T09:01:34.031Z,14.92
2022-10-31T09:04:03.043Z,15.27
2022-10-31T09:06:30.907Z,15.21
2022-10-31T09:09:00.914Z,15.12
2022-10-31T09:11:30.942Z,14.65
2022-10-31T09:14:17.046Z,15.42
2022-10-31T09:17:12.613Z,15.56
2022-10-31T09:19:56.728Z,15.76
2022-10-31T09:22:27.902Z,15.53
2022-10-31T09:24:56.205Z,16.05
2022-10-31T09:27:24.444Z,16.74
2022-10-31T09:29:55.786Z,17.16
2022-10-31T09:32:25.512Z,16.84
2022-10-31T09:34:53.474Z,16.80
2022-10-31T09:37:22.042Z,16.78
2022-10-31T09:39:51.164Z,17.11
2022-10-31T09:42:39.176Z,17.34
2022-10-31T09:45:18.651Z,18.15
2022-10-31T09:48:01.692Z,18.91
2022-10-31T09:50:36.457Z,18.61
2022-10-31T09:53:25.023Z,18.34
2022-10-31T09:55:53.110Z,18.70
2022-10-31T09:58:22.277Z,18.17
2022-10-31T10:00:50.606Z,18.60
2022-10-31T10:03:27.894Z,18.91
2022-10-31T10:05:59.551Z,18.49
2022-10-31T10:08:41.748Z,19.07
2022-10-31T10:11:35.766Z,17.98
2022-10-31T10:14:24.025Z,18.26
2022-10-31T10:17:01.110Z,17.29
2022-10-31T10:19:54.911Z,18.06
2022-10-31T10:22:26.454Z,18.50
2022-10-31T10:25:02.666Z,18.42
2022-10-31T10:27:36.170Z,18.54
2022-10-31T10:30:07.536Z,19.20
2022-10-31T10:32:50.877Z,18.81
2022-10-31T10:35:25.243Z,18.66
2022-10-31T10:37:55.042Z,19.33
2022-10-31T10:40:25.162Z,18.41
2022-10-31T10:43:15.526Z,19.13
2022-10-31T10:46:01.662Z,19.97
2022-10-31T10:48:35.125Z,20.98
2022-10-31T10:51:05.923Z,21.44
2022-10-31T10:54:00.537Z,20.95
2022-10-31T10:56:35.836Z,21.08
2022-10-31T10:59:04.475Z,20.99
2022-10-31T11:01:32.574Z,22.99
2022-10-31T11:04:00.541Z,24.48
2022-10-31T11:06:29.945Z,24.62
2022-10-31T11:08:57.849Z,24.75
2022-10-31T11:11:29.044Z,25.77
2022-10-31T11:14:00.014Z,26.53
2022-10-31T11:16:36.760Z,26.84
2022-10-31T11:19:10.153Z,26.74
2022-10-31T11:21:39.756Z,27.67
2022-10-31T11:24:14.628Z,28.65
2022-10-31T11:26:43.616Z,28.96
2022-10-31T11:29:15.560Z,28.19
2022-10-31T11:31:44.231Z,27.42
2022-10-31T11:34:22.750Z,26.10
2022-10-31T11:36:52.136Z,26.56
2022-10-31T11:39:24.271Z,26.06
2022-10-31T11:41:52.911Z,28.27
2022-10-31T11:44:22.130Z,28.11
2022-10-31T11:46:51.061Z,27.12
2022-10-31T11:49:31.364Z,28.26
2022-10-31T11:52:02.886Z,28.54
2022-10-31T11:54:33.247Z,26.90
2022-10-31T11:57:01.554Z,26.35
2022-10-31T11:59:30.697Z,27.40
2022-10-31T12:02:00.831Z,27.74
2022-10-31T12:04:37.582Z,26.18
2022-10-31T12:07:06.941Z,27.36
2022-10-31T12:09:35.988Z,27.63
2022-10-31T12:12:20.374Z,26.49
2022-10-31T12:14:54.077Z,26.70
2022-10-31T12:17:26.033Z,25.38
2022-10-31T12:20:00.748Z,25.58
2022-10-31T12:22:33.499Z,26.08
2022-10-31T12:25:13.722Z,24.76
2022-10-31T12:27:56.429Z,25.84
2022-10-31T12:30:28.485Z,26.09
2022-10-31T12:33:14.196Z,25.04
2022-10-31T12:35:47.311Z,24.61
2022-10-31T12:38:27.344Z,23.89
2022-10-31T12:41:12.839Z,22.71
2022-10-31T12:43:47.462Z,23.69
2022-10-31T12:46:21.519Z,23.69
2022-10-31T12:49:01.105Z,22.93
2022-10-31T12:51:35.683Z,23.65
2022-10-31T12:54:12.529Z,24.10
2022-10-31T12:56:52.969Z,23.73
2022-10-31T12:59:23.887Z,23.34
2022-10-31T13:01:53.454Z,23.02
2022-10-31T13:04:30.262Z,22.48
2022-10-31T13:07:00.862Z,22.36
2022-10-31T13:09:35.738Z,22.86
2022-10-31T13:12:06.728Z,22.84
2022-10-31T13:14:36.684Z,22.67
2022-10-31T13:17:05.064Z,22.92
2022-10-31T13:19:36.773Z,22.72
2022-10-31T13:22:08.869Z,22.74
2022-10-31T13:24:41.625Z,21.84
2022-10-31T13:27:15.047Z,21.75
2022-10-31T13:29:46.348Z,21.71
2022-10-31T13:32:14.060Z,22.04
2022-10-31T13:34:44.081Z,22.36
2022-10-31T13:37:19.900Z,22.43
2022-10-31T13:39:53.664Z,22.05
2022-10-31T13:42:23.455Z,22.35
2022-10-31T13:44:51.437Z,22.53
2022-10-31T13:47:23.617Z,22.36
2022-10-31T13:49:52.183Z,22.19
2022-10-31T13:52:25.826Z,22.05
2022-10-31T13:54:58.274Z,21.86
2022-10-31T13:57:34.413Z,21.78
2022-10-31T14:00:04.106Z,21.68
2022-10-31T14:02:47.185Z,21.46
2022-10-31T14:05:24.115Z,21.15
2022-10-31T14:07:52.162Z,20.76
2022-10-31T14:10:28.060Z,20.71
2022-10-31T14:13:04.800Z,20.64
2022-10-31T14:15:33.559Z,20.56
2022-10-31T14:18:05.247Z,20.51
2022-10-31T14:20:42.253Z,20.43
2022-10-31T14:23:14.870Z,21.36
2022-10-31T14:25:44.680Z,24.56
2022-10-31T14:28:23.284Z,28.42
2022-10-31T14:30:55.299Z,29.79
2022-10-31T14:33:24.264Z,27.83
2022-10-31T14:35:56.639Z,28.25
2022-10-31T14:38:33.951Z,29.39
2022-10-31T14:41:15.730Z,30.93
2022-10-31T14:43:52.735Z,30.15
2022-10-31T14:46:28.865Z,29.91
2022-10-31T14:49:06.979Z,30.38
2022-10-31T14:51:37.762Z,28.60
2022-10-31T14:54:07.605Z,26.74
2022-10-31T14:56:38.029Z,25.69
2022-10-31T14:59:11.020Z,24.75
2022-10-31T15:01:40.736Z,23.98
2022-10-31T15:04:23.119Z,23.38
2022-10-31T15:06:56.252Z,22.46
2022-10-31T15:09:25.082Z,21.84
2022-10-31T15:11:55.040Z,21.03
2022-10-31T15:14:24.665Z,20.74
2022-10-31T15:16:53.389Z,20.23
2022-10-31T15:19:24.066Z,19.81
2022-10-31T15:21:53.453Z,19.44
2022-10-31T15:24:22.908Z,19.25
2022-10-31T15:26:52.821Z,19.16
2022-10-31T15:29:23.778Z,18.94
2022-10-31T15:31:52.160Z,18.93
2022-10-31T15:34:25.488Z,19.05
2022-10-31T15:36:55.437Z,19.23
2022-10-31T15:39:24.215Z,19.40
2022-10-31T15:41:54.770Z,19.49
2022-10-31T15:44:27.118Z,19.55
2022-10-31T15:46:59.898Z,19.25
2022-10-31T15:49:39.032Z,18.93
2022-10-31T15:52:13.790Z,18.84
2022-10-31T15:54:47.303Z,18.90
2022-10-31T15:57:16.603Z,19.03
2022-10-31T15:59:50.192Z,19.03
2022-10-31T16:02:21.043Z,18.73
2022-10-31T16:04:54.617Z,18.36
2022-10-31T16:07:23.880Z,18.14
2022-10-31T16:09:53.344Z,18.03
2022-10-31T16:12:22.754Z,17.82
2022-10-31T16:14:52.726Z,17.77
2022-10-31T16:17:23.124Z,17.61
2022-10-31T16:19:53.045Z,17.44
2022-10-31T16:22:26.685Z,17.08
2022-10-31T16:24:59.852Z,16.80
2022-10-31T16:27:30.009Z,16.66
2022-10-31T16:30:02.654Z,16.67
2022-10-31T16:32:32.593Z,16.62
2022-10-31T16:35:01.826Z,16.44
2022-10-31T16:37:29.390Z,16.39
2022-10-31T16:39:57.310Z,16.44
2022-10-31T16:42:25.615Z,16.60
2022-10-31T16:44:53.626Z,16.67
2022-10-31T16:47:25.979Z,16.76
2022-10-31T16:50:00.933Z,16.85
2022-10-31T16:52:37.953Z,16.95
2022-10-31T16:55:14.167Z,17.00
2022-10-31T16:57:42.970Z,16.81
2022-10-31T17:00:14.919Z,16.67
2022-10-31T17:02:44.288Z,16.69
2022-10-31T17:05:14.584Z,16.74
2022-10-31T17:07:43.205Z,16.84
2022-10-31T17:10:11.585Z,17.17
2022-10-31T17:12:39.851Z,17.35
2022-10-31T17:15:08.843Z,17.43
2022-10-31T17:17:38.850Z,17.31
2022-10-31T17:20:17.773Z,17.16
2022-10-31T17:22:46.336Z,17.38
2022-10-31T17:25:16.491Z,17.46
2022-10-31T17:27:47.284Z,17.22
2022-10-31T17:30:16.725Z,17.40
2022-10-31T17:32:44.425Z,17.16
2022-10-31T17:35:14.511Z,17.13
2022-10-31T17:37:43.276Z,17.19
2022-10-31T17:40:11.925Z,16.75
2022-10-31T17:42:39.786Z,16.24
2022-10-31T17:45:08.572Z,16.29
2022-10-31T17:47:36.608Z,15.98
2022-10-31T17:50:05.589Z,15.57
2022-10-31T17:52:34.595Z,15.32
2022-10-31T17:55:02.355Z,15.48
2022-10-31T17:57:33.602Z,15.75
2022-10-31T18:00:01.367Z,15.76
2022-10-31T18:02:33.440Z,15.32
2022-10-31T18:05:02.543Z,15.02
2022-10-31T18:07:30.392Z,14.87
2022-10-31T18:09:59.722Z,14.95
2022-10-31T18:12:28.089Z,14.98
2022-10-31T18:14:55.831Z,15.22
2022-10-31T18:17:23.494Z,15.18
2022-10-31T18:19:51.477Z,15.04
2022-10-31T18:22:21.448Z,14.99
2022-10-31T18:24:49.406Z,14.81
2022-10-31T18:27:18.560Z,14.66
2022-10-31T18:29:46.685Z,14.61
2022-10-31T18:32:14.828Z,14.56
2022-10-31T18:34:42.906Z,14.48
2022-10-31T18:37:10.791Z,14.57
2022-10-31T18:39:39.164Z,14.80
2022-10-31T18:42:06.859Z,15.03
2022-10-31T18:44:36.243Z,15.11
2022-10-31T18:47:03.984Z,14.89
2022-10-31T18:49:32.747Z,14.74
2022-10-31T18:52:01.796Z,14.62
2022-10-31T18:54:30.466Z,14.72
2022-10-31T18:56:58.144Z,14.79
2022-10-31T18:59:25.839Z,14.81
2022-10-31T19:01:55.020Z,14.81
2022-10-31T19:04:23.026Z,14.53
2022-10-31T19:06:50.880Z,14.11
2022-10-31T19:09:18.905Z,14.08
2022-10-31T19:11:46.977Z,14.02
2022-10-31T19:14:14.982Z,14.17
2022-10-31T19:16:43.259Z,14.37
2022-10-31T19:19:14.608Z,14.46
2022-10-31T19:21:42.718Z,14.55
2022-10-31T19:24:11.084Z,14.54
2022-10-31T19:26:40.270Z,14.56
2022-10-31T19:29:08.143Z,14.65
2022-10-31T19:31:35.913Z,14.67
2022-10-31T19:34:03.679Z,14.70
2022-10-31T19:36:32.785Z,14.70
2022-10-31T19:39:01.242Z,14.65
2022-10-31T19:41:30.009Z,14.59
2022-10-31T19:43:59.906Z,14.53
2022-10-31T19:49:16.557Z,14.67
2022-10-31T19:51:45.639Z,14.70
2022-10-31T19:54:13.454Z,14.76
2022-10-31T19:56:41.186Z,14.81
2022-10-31T19:59:09.153Z,14.80
2022-10-31T20:01:37.090Z,14.70
2022-10-31T20:04:05.289Z,14.54
2022-10-31T20:06:34.115Z,14.45
2022-10-31T20:09:03.985Z,14.46
2022-10-31T20:11:31.773Z,14.54
2022-10-31T20:14:00.214Z,14.42
2022-10-31T20:16:28.630Z,14.36
2022-10-31T20:18:56.896Z,14.46
2022-10-31T20:21:26.595Z,14.58
2022-10-31T20:23:56.030Z,14.50
2022-10-31T20:26:25.371Z,14.38
2022-10-31T20:28:53.430Z,14.39
2022-10-31T20:31:22.872Z,14.36
2022-10-31T20:33:51.170Z,14.26
2022-10-31T20:36:21.017Z,14.31
2022-10-31T20:38:48.844Z,14.27
2022-10-31T20:41:18.075Z,14.09
2022-10-31T20:43:47.608Z,13.95
2022-10-31T20:46:16.199Z,13.77
2022-10-31T20:48:43.943Z,13.60
2022-10-31T20:51:13.817Z,13.72
2022-10-31T20:53:41.856Z,13.90
2022-10-31T20:56:10.463Z,13.91
2022-10-31T20:58:38.917Z,13.94
2022-10-31T21:01:12.056Z,13.89
2022-10-31T21:03:40.540Z,13.93
2022-10-31T21:06:10.008Z,13.91
2022-10-31T21:08:38.179Z,13.94
2022-10-31T21:11:08.427Z,13.96
2022-10-31T21:13:40.639Z,13.88
2022-10-31T21:16:11.188Z,13.84
2022-10-31T21:18:40.835Z,13.72
2022-10-31T21:21:08.803Z,13.63
2022-10-31T21:23:36.895Z,13.63
2022-10-31T21:26:08.391Z,13.69
2022-10-31T21:28:36.463Z,13.76
2022-10-31T21:31:07.393Z,13.61
2022-10-31T21:33:38.035Z,13.66
2022-10-31T21:36:06.419Z,13.60
2022-10-31T21:38:35.697Z,13.56
2022-10-31T21:41:04.220Z,13.57
2022-10-31T21:43:32.498Z,13.52
2022-10-31T21:46:03.741Z,13.58
2022-10-31T21:48:31.542Z,13.53
2022-10-31T21:51:03.507Z,13.44
2022-10-31T21:53:49.100Z,13.32
2022-10-31T21:56:16.740Z,13.21
2022-10-31T21:58:44.718Z,13.32
2022-10-31T22:01:12.535Z,13.43
2022-10-31T22:03:43.077Z,13.52
2022-10-31T22:06:13.026Z,13.60
2022-10-31T22:08:41.772Z,13.58
2022-10-31T22:11:10.391Z,13.60
2022-10-31T22:13:38.674Z,13.83
2022-10-31T22:16:08.235Z,13.98
2022-10-31T22:18:36.201Z,14.16
2022-10-31T22:21:04.855Z,14.25
2022-10-31T22:23:36.550Z,14.36
2022-10-31T22:26:07.788Z,14.35
2022-10-31T22:28:37.166Z,14.34
2022-10-31T22:31:08.395Z,14.23
2022-10-31T22:33:36.639Z,14.27
2022-10-31T22:36:14.207Z,14.36
2022-10-31T22:38:44.119Z,14.46
2022-10-31T22:41:12.714Z,14.63
2022-10-31T22:43:41.071Z,14.70
2022-10-31T22:46:12.069Z,14.72
2022-10-31T22:48:41.141Z,14.50
2022-10-31T22:51:09.613Z,14.29
2022-10-31T22:53:38.609Z,14.55
2022-10-31T22:56:09.068Z,14.85
2022-10-31T22:58:37.346Z,14.99
2022-10-31T23:01:07.914Z,15.09
2022-10-31T23:03:36.034Z,15.22
2022-10-31T23:06:04.791Z,15.11
2022-10-31T23:08:33.831Z,14.99
2022-10-31T23:11:02.293Z,14.96
2022-10-31T23:13:49.461Z,14.95
2022-10-31T23:16:17.457Z,14.98
2022-10-31T23:18:49.921Z,15.03
2022-10-31T23:21:32.657Z,15.05
2022-10-31T23:24:00.830Z,14.68
2022-10-31T23:26:46.171Z,14.68
2022-10-31T23:29:15.612Z,14.76
2022-10-31T23:31:43.565Z,14.87
2022-10-31T23:34:11.775Z,14.94
2022-10-31T23:36:39.786Z,14.98
2022-10-31T23:39:07.890Z,15.00
2022-10-31T23:41:36.353Z,14.59
2022-10-31T23:44:05.706Z,14.72
2022-10-31T23:46:34.809Z,14.90
2022-10-31T23:49:02.633Z,15.01
2022-10-31T23:51:30.289Z,15.13
2022-10-31T23:53:58.144Z,14.46
2022-10-31T23:56:25.953Z,13.79
2022-10-31T23:58:54.821Z,14.06
